Old Crow, Yukon

6:43 AM PDT on July 30, 2016 (GMT -0700)
Old Crow | | Change Station

Elev 823 ft 67.57 °N, 139.84 °W | Updated 32 minutes ago

Light Rain
Light Rain
45 °F
Feels Like 41 °F
N
7
Wind Variable Wind from ENE

Today
High -- | Low -- °F
--% Chance of Precip.
Yesterday
High -- | Low -- °F
Precip. -- in
Pressure 29.84 in
Visibility 15.0 miles
Clouds Scattered Clouds 1100 ft
Mostly Cloudy 1800 ft
Overcast 7000 ft
Windchill 41 °F
Dew Point 41 °F
Humidity 87%
Rainfall 0.00 in
Snow Depth Not available.
4:35 AM 0:11 AM
Waning Crescent, 13% visible
SPECI CYOC 301311Z 07006KT 15SM -RA SCT011 BKN018 OVC070 07/05 A2980 RMK SF3ST4AS1 VIS SW-NW 2 SLP103
Pressure 29.84 in
Visibility 15.0 miles
Clouds Scattered Clouds 1100 ft
Mostly Cloudy 1800 ft
Overcast 7000 ft
Windchill 41 °F
Dew Point 41 °F
Humidity 87%
Rainfall 0.00 in
Snow Depth Not available.
4:35 AM 0:11 AM
Waning Crescent, 13% visible
SPECI CYOC 301311Z 07006KT 15SM -RA SCT011 BKN018 OVC070 07/05 A2980 RMK SF3ST4AS1 VIS SW-NW 2 SLP103

10-Day Weather Forecast

No radar image for this location.
×

Almanac

Astronomy

Jul. 30, 2016 Rise Set
Actual Time
Civil Twilight
Nautical Twilight
Astronomical Twilight
Moon
Length of Visible Light
Length of Day
Tomorrow will be .
, % of the Moon is Illuminated

Today's Extremes

Country Highs Country Lows

Community

WunderPhotos

Upload Photos

1,928,560 photos uploaded!

WunderBlog® & News

Nearby

Air Quality

  Air Quality AQ Index Pollutant
Not available.

Snow Depth

Station Depth Elevation

Earthquake Activity

City Distance Mag. Time & Date
Minimum magnitude displayed is 2.5.

Coastal Water Temperatures

Place Temperature

Stations

Nearby Weather Stations

Station Location Temp. Windchill Dew Point Humidity Wind Precip. Elev Updated Type
                   

Watches & Warnings

There are currently no watches in effect.